Time;durP1;ratioP1;P1;durP2;ratioP2;P2;SDS_P1;SDS_P2;PMS_P1;PMS_P2;Temp;Humidity;BMP_temperature;BMP_pressure;BME280_temperature;BME280_humidity;BME280_pressure;Samples;Min_cycle;Max_cycle;Signal;HPM_P1;HPM_P2
2022/06/03 00:01:41;;;;;;;96.97;39.70;;;;;;;27.77;51.94;97294.66;5108070;28;20055;-70
2022/06/03 00:04:42;;;;;;;97.97;37.33;;;;;;;27.82;56.42;97296.72;5115248;28;20073;-71
2022/06/03 00:07:40;;;;;;;90.40;38.95;;;;;;;27.77;56.19;97297.31;5111453;27;20059;-72
2022/06/03 00:10:53;;;;;;;95.40;39.60;;;;;;;27.74;55.88;97297.66;5121256;27;20039;-71
2022/06/03 00:14:04;;;;;;;90.85;41.05;;;;;;;27.71;55.09;97299.88;5124928;27;20043;-70
2022/06/03 00:16:57;;;;;;;92.60;40.45;;;;;;;27.68;52.86;97302.91;5113575;27;20103;-72
2022/06/03 00:20:17;;;;;;;102.70;42.00;;;;;;;27.70;53.32;97306.16;5111827;27;20043;-71
2022/06/03 00:23:40;;;;;;;99.38;44.08;;;;;;;27.72;58.35;97310.28;5124620;27;20051;-70
2022/06/03 00:26:30;;;;;;;100.63;42.92;;;;;;;27.73;57.57;97296.03;5106903;27;20039;-70
2022/06/03 00:29:19;;;;;;;106.30;43.28;;;;;;;27.73;57.73;97303.16;5102073;27;20051;-70
2022/06/03 00:32:23;;;;;;;95.05;43.80;;;;;;;27.81;57.67;97308.31;5115947;27;20124;-71
2022/06/03 00:35:23;;;;;;;109.18;47.05;;;;;;;27.84;61.57;97300.03;5124994;27;20047;-70
2022/06/03 00:38:32;;;;;;;113.68;48.85;;;;;;;27.83;61.06;97302.84;5132953;27;20673;-70
2022/06/03 00:41:59;;;;;;;107.93;49.20;;;;;;;27.87;59.54;97309.38;5121660;27;20625;-71
2022/06/03 00:45:21;;;;;;;106.35;49.25;;;;;;;27.92;60.32;97317.59;5121939;27;20074;-69
2022/06/03 00:48:11;;;;;;;111.78;52.58;;;;;;;27.93;62.85;97313.97;5106552;28;20043;-68
2022/06/03 00:51:07;;;;;;;107.88;48.78;;;;;;;27.97;61.88;97309.91;5125209;27;20070;-69
2022/06/03 00:54:22;;;;;;;118.95;50.53;;;;;;;28.05;63.48;97321.19;5125178;27;20051;-70
2022/06/03 00:57:39;;;;;;;97.85;47.72;;;;;;;28.10;65.40;97320.63;5124441;27;20108;-71
2022/06/03 01:00:35;;;;;;;116.88;50.92;;;;;;;28.08;63.01;97323.47;5124850;27;20147;-71
2022/06/03 01:03:29;;;;;;;104.55;51.03;;;;;;;28.22;63.76;97323.63;5140456;27;20047;-70
2022/06/03 01:06:36;;;;;;;117.38;52.60;;;;;;;28.29;67.93;97324.50;5104292;28;20403;-70
2022/06/03 01:09:53;;;;;;;123.38;53.40;;;;;;;28.34;70.57;97322.91;5118537;27;20731;-71
2022/06/03 01:12:56;;;;;;;112.82;51.83;;;;;;;28.38;71.78;97329.47;5110268;28;20315;-70
2022/06/03 01:15:53;;;;;;;108.07;54.10;;;;;;;28.37;72.09;97335.78;5109875;28;20139;-70
2022/06/03 01:18:42;;;;;;;120.95;54.03;;;;;;;28.43;78.36;97335.00;5124908;28;20111;-69
2022/06/03 01:21:39;;;;;;;112.20;57.35;;;;;;;28.43;82.07;97339.47;5123410;27;20051;-72
2022/06/03 01:24:52;;;;;;;126.50;58.33;;;;;;;28.41;84.20;97333.56;5117604;27;20116;-73
2022/06/03 01:27:46;;;;;;;130.00;61.92;;;;;;;28.36;78.52;97339.44;5117307;27;20047;-73
2022/06/03 01:30:58;;;;;;;115.78;59.22;;;;;;;28.50;75.39;97341.19;5120661;27;20050;-73
2022/06/03 01:33:51;;;;;;;132.23;60.00;;;;;;;28.61;78.00;97336.38;5101846;28;20112;-73
2022/06/03 01:36:43;;;;;;;118.97;58.78;;;;;;;28.77;93.43;97338.75;5102703;28;20108;-74
2022/06/03 01:39:59;;;;;;;124.80;60.05;;;;;;;28.74;95.47;97339.09;5103137;28;20677;-73
2022/06/03 01:43:25;;;;;;;121.40;59.63;;;;;;;28.90;83.37;97349.44;5101854;28;20047;-73
2022/06/03 01:46:38;;;;;;;119.05;62.80;;;;;;;29.15;93.46;97357.75;5092538;27;20054;-73
2022/06/03 01:49:45;;;;;;;127.32;63.53;;;;;;;29.45;90.23;97364.50;5102135;28;20112;-74
2022/06/03 01:53:19;;;;;;;122.35;59.20;;;;;;;30.08;85.29;97365.16;5104970;28;20055;-74
2022/06/03 01:56:35;;;;;;;116.05;53.90;;;;;;;30.71;74.56;97377.09;5125851;27;20051;-74
2022/06/03 01:59:51;;;;;;;113.75;48.78;;;;;;;31.37;67.67;97377.00;5078007;27;20559;-75
2022/06/03 02:03:11;;;;;;;86.25;42.10;;;;;;;31.97;63.22;97380.28;5123099;27;20043;-75
2022/06/03 02:06:09;;;;;;;80.75;36.28;;;;;;;32.39;66.90;97386.00;5122455;27;20047;-74
2022/06/03 02:09:09;;;;;;;67.40;30.33;;;;;;;32.78;51.66;97396.38;5113311;27;20039;-74
2022/06/03 02:12:11;;;;;;;73.40;29.88;;;;;;;33.13;47.30;97398.50;5105386;28;20056;-75
2022/06/03 02:15:18;;;;;;;62.90;30.65;;;;;;;33.44;49.10;97401.91;5105484;28;20047;-74
2022/06/03 02:18:39;;;;;;;70.32;31.83;;;;;;;34.10;51.48;97402.97;5122484;27;20047;-73
2022/06/03 02:21:49;;;;;;;67.40;29.63;;;;;;;34.38;47.72;97397.88;5109562;27;20104;-72
2022/06/03 02:24:52;;;;;;;109.88;34.38;;;;;;;34.67;52.07;97406.91;5127447;27;20043;-71
2022/06/03 02:28:11;;;;;;;83.32;35.90;;;;;;;34.74;44.08;97406.81;5127344;27;20051;-72
2022/06/03 02:31:08;;;;;;;84.25;36.78;;;;;;;35.15;50.48;97408.59;5125985;27;20100;-74
2022/06/03 02:33:56;;;;;;;83.75;38.67;;;;;;;35.32;43.39;97408.72;5112024;27;20039;-72
2022/06/03 02:37:13;;;;;;;81.25;41.58;;;;;;;35.60;44.03;97406.13;5132351;27;20039;-72
2022/06/03 02:39:54;;;;;;;77.82;40.63;;;;;;;35.61;51.93;97407.75;5114426;27;20034;-74
2022/06/03 02:43:01;;;;;;;82.50;41.35;;;;;;;35.84;45.65;97418.44;5126328;27;20092;-74
2022/06/03 02:46:12;;;;;;;91.15;41.83;;;;;;;35.88;50.18;97418.78;5143374;27;20046;-73
2022/06/03 02:49:04;;;;;;;84.32;40.15;;;;;;;36.01;42.59;97416.63;5129579;27;20053;-72
2022/06/03 02:52:02;;;;;;;79.07;39.03;;;;;;;35.89;45.62;97415.06;5109793;27;20425;-73
2022/06/03 02:55:11;;;;;;;75.63;35.50;;;;;;;35.92;44.64;97420.72;5127794;27;20116;-71
2022/06/03 02:58:21;;;;;;;64.30;29.17;;;;;;;36.12;45.01;97414.16;5126185;27;20039;-72
2022/06/03 03:01:34;;;;;;;58.78;26.55;;;;;;;36.10;42.57;97410.88;5126621;27;20127;-73
2022/06/03 03:05:05;;;;;;;55.17;25.05;;;;;;;36.79;44.68;97417.81;5111165;27;20451;-71
2022/06/03 03:07:43;;;;;;;;;;;;;;;37.14;43.10;97418.38;5064108;28;20471;-73
2022/06/03 03:11:16;;;;;;;50.72;23.52;;;;;;;37.09;48.34;97409.41;5127757;27;19934;-73
2022/06/03 03:14:34;;;;;;;55.35;23.27;;;;;;;37.26;42.16;97407.53;5119121;27;20081;-71
2022/06/03 03:17:53;;;;;;;41.72;21.60;;;;;;;37.37;40.82;97411.97;5096646;28;20128;-73
2022/06/03 03:21:15;;;;;;;40.53;20.38;;;;;;;37.22;32.64;97411.75;5126798;27;20062;-72
2022/06/03 03:24:12;;;;;;;62.17;22.63;;;;;;;37.66;39.60;97414.53;5124509;27;20545;-71
2022/06/03 03:26:54;;;;;;;50.03;21.27;;;;;;;37.79;38.51;97414.97;5126819;27;20062;-71
2022/06/03 03:29:52;;;;;;;56.97;23.27;;;;;;;37.79;44.79;97412.28;5138267;27;20135;-72
2022/06/03 03:32:49;;;;;;;67.55;27.23;;;;;;;37.79;39.59;97416.84;5127065;27;20127;-71
2022/06/03 03:35:51;;;;;;;76.95;27.65;;;;;;;38.14;38.94;97416.47;5107868;27;20047;-72
2022/06/03 03:38:51;;;;;;;56.60;29.33;;;;;;;37.96;36.28;97414.09;5126182;27;20047;-73
2022/06/03 03:42:01;;;;;;;99.20;32.17;;;;;;;38.18;38.33;97412.19;5124309;27;20104;-72
2022/06/03 03:44:54;;;;;;;77.20;30.50;;;;;;;38.17;35.59;97414.06;5126558;27;20051;-71
2022/06/03 03:48:08;;;;;;;60.38;30.17;;;;;;;38.59;35.79;97408.03;5125201;27;20051;-73
2022/06/03 03:51:04;;;;;;;60.35;27.58;;;;;;;38.56;34.20;97411.25;5126984;27;20084;-71
2022/06/03 03:54:21;;;;;;;57.20;26.23;;;;;;;38.86;30.78;97413.41;5124410;27;20058;-69
2022/06/03 03:57:34;;;;;;;56.92;25.08;;;;;;;38.86;35.16;97414.22;5108323;27;20096;-69
2022/06/03 04:00:52;;;;;;;57.30;23.17;;;;;;;39.04;36.32;97408.41;5125460;27;20066;-71
2022/06/03 04:04:03;;;;;;;58.78;21.20;;;;;;;39.09;35.63;97420.31;5125885;27;20047;-70
2022/06/03 04:07:21;;;;;;;43.92;19.15;;;;;;;39.23;38.84;97414.22;5125156;27;20055;-71
2022/06/03 04:10:50;;;;;;;49.25;22.90;;;;;;;39.24;32.73;97425.81;5103994;28;20044;-71
2022/06/03 04:13:50;;;;;;;49.70;19.80;;;;;;;39.28;29.00;97426.91;5102123;28;20063;-71
2022/06/03 04:17:16;;;;;;;52.33;21.60;;;;;;;39.48;32.78;97421.66;5104437;28;20108;-71
2022/06/03 04:20:32;;;;;;;75.43;22.10;;;;;;;39.29;33.47;97425.81;5102893;28;20104;-71
2022/06/03 04:24:03;;;;;;;51.55;20.95;;;;;;;39.79;25.77;97428.81;5040258;28;20043;-70
2022/06/03 04:27:15;;;;;;;44.35;16.10;;;;;;;39.76;24.61;97433.91;5104611;28;20083;-71
2022/06/03 04:30:30;;;;;;;38.92;18.25;;;;;;;39.82;26.85;97432.09;5104271;28;20051;-71
2022/06/03 04:33:47;;;;;;;43.17;17.05;;;;;;;40.10;31.54;97434.34;5115222;27;20058;-71
2022/06/03 04:36:56;;;;;;;44.38;18.65;;;;;;;40.17;28.26;97435.72;5086428;28;20036;-70
2022/06/03 04:40:06;;;;;;;51.08;22.00;;;;;;;40.39;30.78;97432.81;5104606;28;20700;-70
2022/06/03 04:43:07;;;;;;;50.83;21.50;;;;;;;40.06;29.88;97434.09;5102614;28;20836;-70
2022/06/03 04:46:02;;;;;;;52.20;22.52;;;;;;;39.95;27.29;97432.41;5104850;27;20043;-69
2022/06/03 04:49:25;;;;;;;54.28;19.70;;;;;;;40.07;33.06;97434.91;5102603;28;20458;-70
2022/06/03 04:52:26;;;;;;;41.43;16.67;;;;;;;40.44;32.10;97435.53;5100481;28;20101;-70
2022/06/03 04:55:35;;;;;;;42.33;16.10;;;;;;;40.11;25.44;97438.66;5104239;28;20043;-69
2022/06/03 04:58:50;;;;;;;37.60;16.33;;;;;;;40.29;28.51;97432.81;5104296;28;20458;-71
2022/06/03 05:02:17;;;;;;;51.55;14.27;;;;;;;40.13;28.59;97423.03;5062844;28;20048;-73
2022/06/03 05:05:41;;;;;;;40.28;13.25;;;;;;;40.12;31.45;97421.41;5084870;28;20054;-73
2022/06/03 05:08:39;;;;;;;45.75;16.27;;;;;;;40.28;33.15;97422.28;5075856;28;20056;-74
2022/06/03 05:11:55;;;;;;;44.53;15.65;;;;;;;39.60;27.99;97424.94;5105359;28;20058;-74
2022/06/03 05:15:14;;;;;;;51.97;15.35;;;;;;;39.97;30.32;97424.06;5104794;28;20116;-74
2022/06/03 05:18:40;;;;;;;37.10;14.25;;;;;;;40.08;26.76;97425.69;5089365;28;20762;-74
2022/06/03 05:21:46;;;;;;;35.25;12.52;;;;;;;40.15;25.79;97431.69;5096056;28;20047;-74
2022/06/03 05:24:56;;;;;;;37.88;12.52;;;;;;;40.44;26.80;97432.03;5080697;28;20048;-74
2022/06/03 05:28:03;;;;;;;32.30;12.25;;;;;;;40.36;29.72;97424.44;5100905;28;20059;-73
2022/06/03 05:31:25;;;;;;;34.22;11.63;;;;;;;40.20;29.39;97420.88;5107804;28;20043;-72
2022/06/03 05:34:52;;;;;;;30.90;11.60;;;;;;;40.21;32.25;97422.50;5106383;28;20530;-73
2022/06/03 05:38:18;;;;;;;33.75;10.98;;;;;;;40.20;35.06;97412.78;5105821;28;20040;-73
2022/06/03 05:45:05;;;;;;;25.25;10.35;;;;;;;40.61;28.49;97412.88;5107151;28;20123;-72
2022/06/03 05:48:23;;;;;;;26.95;9.90;;;;;;;40.62;28.53;97415.31;5081904;28;20046;-74
2022/06/03 05:51:40;;;;;;;33.58;10.70;;;;;;;40.74;31.81;97406.94;5104363;28;20055;-73
2022/06/03 05:54:44;;;;;;;30.80;10.07;;;;;;;40.60;33.70;97412.06;5093087;27;20047;-73
2022/06/03 05:57:47;;;;;;;33.13;9.48;;;;;;;40.24;27.00;97419.25;5098166;28;20067;-74
2022/06/03 06:00:48;;;;;;;23.45;9.23;;;;;;;40.55;28.10;97403.16;5089011;28;20051;-73
2022/06/03 06:04:00;;;;;;;29.40;11.55;;;;;;;40.36;27.42;97406.38;5108223;28;20046;-73
2022/06/03 06:07:17;;;;;;;26.80;8.65;;;;;;;40.25;26.54;97403.91;5090887;28;20040;-73
2022/06/03 06:10:11;;;;;;;37.53;9.65;;;;;;;40.59;31.80;97399.63;5103068;27;20040;-73
2022/06/03 06:13:44;;;;;;;36.83;9.07;;;;;;;40.55;24.75;97405.84;5108988;28;20315;-74
2022/06/03 06:16:42;;;;;;;30.75;8.27;;;;;;;40.21;22.62;97405.50;5106603;28;20773;-74
2022/06/03 06:20:12;;;;;;;29.77;9.23;;;;;;;40.47;26.56;97405.28;5106670;28;20059;-73
2022/06/03 06:23:16;;;;;;;33.13;8.23;;;;;;;40.65;28.53;97403.13;5107385;28;20052;-74
2022/06/03 06:26:14;;;;;;;24.13;8.65;;;;;;;40.64;30.13;97396.09;5093745;27;20051;-74
2022/06/03 06:29:14;;;;;;;26.90;6.63;;;;;;;40.56;28.48;97399.34;5106797;28;20442;-74
2022/06/03 06:32:37;;;;;;;29.02;6.85;;;;;;;40.60;23.47;97395.03;5104764;28;20104;-76
2022/06/03 06:35:55;;;;;;;15.52;6.35;;;;;;;40.67;28.75;97398.28;5107611;28;20044;-73
2022/06/03 06:39:30;;;;;;;24.83;5.75;;;;;;;40.67;27.22;97396.41;5107385;28;20044;-74
2022/06/03 06:42:39;;;;;;;16.90;4.95;;;;;;;40.76;28.12;97396.69;5052860;28;20052;-74
2022/06/03 06:45:43;;;;;;;17.60;4.95;;;;;;;40.83;27.49;97399.91;5090057;28;20438;-73
2022/06/03 06:48:49;;;;;;;22.33;5.90;;;;;;;40.81;25.16;97399.38;5107219;27;20107;-74
2022/06/03 06:51:32;;;;;;;21.95;5.03;;;;;;;40.85;26.70;97390.47;5089060;28;20089;-74
2022/06/03 06:54:43;;;;;;;15.30;4.75;;;;;;;40.97;26.54;97387.47;5106605;28;20051;-73
2022/06/03 06:57:50;;;;;;;24.67;5.65;;;;;;;40.75;30.72;97381.53;5088634;28;20051;-75
2022/06/03 07:00:39;;;;;;;17.55;5.78;;;;;;;40.53;21.89;97385.31;5106135;28;20040;-74
2022/06/03 07:03:54;;;;;;;15.68;5.05;;;;;;;40.64;26.58;97379.88;5108136;28;20474;-75
2022/06/03 07:06:29;;;;;;;17.45;5.30;;;;;;;40.65;27.09;97381.50;5107271;28;20048;-74
2022/06/03 07:10:17;;;;;;;17.50;5.40;;;;;;;40.60;25.61;97382.34;5115139;27;20079;-74
2022/06/03 07:13:30;;;;;;;19.20;5.32;;;;;;;40.74;22.44;97379.91;5077335;27;20154;-72
2022/06/03 07:20:27;;;;;;;14.85;4.75;;;;;;;40.54;19.52;97380.72;5106357;27;20471;-75
2022/06/03 07:23:38;;;;;;;26.83;4.72;;;;;;;40.64;23.18;97369.09;5123368;27;20124;-73
2022/06/03 07:26:53;;;;;;;14.68;4.38;;;;;;;40.84;25.47;97374.50;5118625;27;20071;-74
2022/06/03 07:29:42;;;;;;;17.85;5.38;;;;;;;40.72;22.95;97374.78;5113404;27;20051;-72
2022/06/03 07:32:36;;;;;;;25.67;6.80;;;;;;;40.80;22.46;97368.03;5125020;27;20046;-74
2022/06/03 07:35:45;;;;;;;15.35;5.38;;;;;;;40.98;24.03;97370.16;5127035;27;20053;-73
2022/06/03 07:38:52;;;;;;;16.13;4.30;;;;;;;40.93;22.82;97366.66;5122823;27;20115;-74
2022/06/03 07:42:18;;;;;;;17.67;4.35;;;;;;;40.96;24.08;97358.81;5127153;27;20046;-74
2022/06/03 07:45:19;;;;;;;14.13;4.30;;;;;;;40.92;26.62;97354.25;5127087;27;20047;-73
2022/06/03 07:48:18;;;;;;;20.33;4.68;;;;;;;40.69;24.88;97361.03;5118285;27;20085;-74
2022/06/03 07:51:11;;;;;;;15.85;5.07;;;;;;;40.63;26.15;97353.97;5109968;27;20047;-75
2022/06/03 07:54:05;;;;;;;18.90;4.97;;;;;;;40.38;25.40;97350.19;5127671;27;20046;-73
2022/06/03 07:56:54;;;;;;;15.73;5.03;;;;;;;40.40;21.52;97348.03;5125569;27;20051;-73
2022/06/03 07:59:40;;;;;;;13.18;4.95;;;;;;;40.39;22.77;97346.41;5122116;27;20043;-73
2022/06/03 08:02:30;;;;;;;11.60;3.90;;;;;;;40.39;24.16;97341.00;5127706;27;20489;-74
2022/06/03 08:05:20;;;;;;;;;;;;;;;40.51;25.34;97338.84;5127659;27;20062;-74
2022/06/03 08:11:16;;;;;;;12.52;3.88;;;;;;;40.44;24.65;97330.22;5109312;27;20062;-73
2022/06/03 08:14:12;;;;;;;20.65;4.88;;;;;;;40.46;23.83;97328.06;5128279;27;20163;-72
2022/06/03 08:17:12;;;;;;;20.05;4.32;;;;;;;40.39;22.61;97335.59;5129021;27;20043;-74
2022/06/03 08:20:07;;;;;;;17.05;4.28;;;;;;;40.42;19.61;97329.66;5139539;27;20730;-74
2022/06/03 08:22:45;;;;;;;21.85;3.63;;;;;;;40.43;24.52;97325.88;5135006;27;20047;-73
2022/06/03 08:25:40;;;;;;;12.45;3.45;;;;;;;40.22;21.07;97312.63;5130775;27;20143;-74
2022/06/03 08:28:28;;;;;;;13.82;3.50;;;;;;;40.09;25.08;97303.16;5127031;27;20055;-73
2022/06/03 08:31:22;;;;;;;15.50;3.25;;;;;;;39.86;22.75;97299.09;5126548;27;20055;-73
2022/06/03 08:34:07;;;;;;;17.75;4.68;;;;;;;39.96;25.92;97304.50;5125673;27;20157;-71
2022/06/03 08:36:56;;;;;;;11.35;3.50;;;;;;;39.75;20.46;97298.22;5120213;27;20061;-74
2022/06/03 08:39:40;;;;;;;20.98;4.88;;;;;;;39.92;23.44;97294.50;5126526;27;20493;-74
2022/06/03 08:42:40;;;;;;;20.60;3.80;;;;;;;39.96;23.21;97301.00;5117861;27;20475;-73
2022/06/03 08:45:29;;;;;;;14.05;3.95;;;;;;;40.03;21.11;97293.44;5120469;27;20055;-72
2022/06/03 08:48:15;;;;;;;19.70;4.63;;;;;;;40.10;23.38;97283.19;5123320;27;20055;-72
2022/06/03 08:51:07;;;;;;;16.30;4.47;;;;;;;40.29;21.64;97287.00;5126309;27;20099;-73
2022/06/03 08:54:14;;;;;;;11.25;3.45;;;;;;;40.36;23.44;97295.66;5124236;27;20541;-73
2022/06/03 08:56:54;;;;;;;13.95;3.65;;;;;;;40.35;20.23;97293.22;5107244;28;20517;-72
2022/06/03 08:59:55;;;;;;;13.98;3.55;;;;;;;40.25;21.12;97282.41;5126048;27;20055;-74
2022/06/03 09:02:49;;;;;;;15.95;4.30;;;;;;;39.91;21.53;97272.09;5124321;27;20039;-74
2022/06/03 09:06:10;;;;;;;13.13;3.70;;;;;;;39.51;23.80;97264.75;5125615;27;20043;-72
2022/06/03 09:09:28;;;;;;;25.05;4.82;;;;;;;39.17;23.30;97272.41;5125513;27;20091;-73
2022/06/03 09:12:22;;;;;;;10.70;3.78;;;;;;;39.00;25.90;97261.81;5102698;27;20159;-74
2022/06/03 09:15:14;;;;;;;17.73;4.18;;;;;;;38.80;22.50;97260.88;5118918;27;20255;-73
2022/06/03 09:18:39;;;;;;;17.65;3.58;;;;;;;38.81;22.23;97254.41;5111361;27;20078;-72
2022/06/03 09:21:41;;;;;;;13.63;3.90;;;;;;;38.66;26.08;97257.84;5128122;27;20060;-73
2022/06/03 09:24:33;;;;;;;14.93;4.22;;;;;;;38.47;25.91;97248.53;5129235;27;20369;-74
2022/06/03 09:27:23;;;;;;;21.02;4.82;;;;;;;38.51;26.00;97257.75;5127825;27;20058;-72
2022/06/03 09:30:15;;;;;;;19.15;5.45;;;;;;;38.53;26.01;97242.97;5129626;27;20051;-75
2022/06/03 09:32:57;;;;;;;17.05;4.90;;;;;;;38.50;28.44;97237.25;5130159;27;20114;-73
2022/06/03 09:35:49;;;;;;;26.77;5.90;;;;;;;38.42;26.11;97252.00;5128648;27;20043;-72
2022/06/03 09:38:56;;;;;;;19.40;4.93;;;;;;;38.52;25.44;97245.91;5112744;27;20473;-72
2022/06/03 09:41:45;;;;;;;20.88;4.95;;;;;;;38.41;25.65;97244.97;5125693;27;20058;-73
2022/06/03 09:44:35;;;;;;;29.13;5.35;;;;;;;38.63;24.29;97237.59;5108576;27;20063;-73
2022/06/03 09:47:23;;;;;;;25.83;5.75;;;;;;;38.81;25.59;97239.06;5129215;27;20486;-73
2022/06/03 09:50:13;;;;;;;15.70;5.18;;;;;;;39.10;23.09;97238.69;5129294;27;20103;-74
2022/06/03 09:53:07;;;;;;;20.75;5.65;;;;;;;39.29;23.43;97237.94;5128504;27;20047;-72
2022/06/03 09:56:02;;;;;;;30.70;5.82;;;;;;;39.38;23.20;97238.25;5128402;27;20065;-73
2022/06/03 09:58:57;;;;;;;17.25;5.38;;;;;;;39.29;26.51;97240.63;5111402;27;20043;-73
2022/06/03 10:01:46;;;;;;;26.52;6.80;;;;;;;39.32;25.09;97233.91;5128938;27;20054;-73
2022/06/03 10:04:35;;;;;;;22.42;5.75;;;;;;;39.26;23.87;97232.28;5132440;27;20449;-72
2022/06/03 10:07:26;;;;;;;22.20;5.97;;;;;;;39.21;23.25;97233.06;5113287;27;20063;-74
2022/06/03 10:13:18;;;;;;;13.45;5.40;;;;;;;39.03;22.67;97226.25;5128410;27;20067;-72
2022/06/03 10:16:07;;;;;;;20.25;5.40;;;;;;;38.88;25.99;97223.47;5128434;27;20122;-72
2022/06/03 10:18:57;;;;;;;23.48;5.55;;;;;;;38.51;26.58;97223.56;5108328;27;20351;-73
2022/06/03 10:21:40;;;;;;;15.60;5.35;;;;;;;38.38;26.19;97217.78;5127018;27;20481;-72
2022/06/03 10:24:32;;;;;;;12.88;5.30;;;;;;;38.26;25.64;97223.34;5126850;27;20039;-73
2022/06/03 10:27:18;;;;;;;23.48;5.85;;;;;;;38.28;25.60;97219.34;5125510;27;20058;-73
2022/06/03 10:30:14;;;;;;;23.02;5.70;;;;;;;38.29;24.40;97220.97;5125828;27;20120;-73
2022/06/03 10:32:57;;;;;;;22.30;5.93;;;;;;;38.28;25.01;97218.53;5105883;27;20063;-73
2022/06/03 10:35:47;;;;;;;23.30;5.25;;;;;;;38.02;25.19;97214.78;5120327;27;20124;-73
2022/06/03 10:38:32;;;;;;;15.40;5.05;;;;;;;37.96;27.64;97213.13;5122898;27;20126;-73
2022/06/03 10:41:32;;;;;;;19.10;4.82;;;;;;;38.08;22.38;97219.16;5122926;27;20070;-74
2022/06/03 10:44:18;;;;;;;29.90;4.95;;;;;;;38.03;26.07;97219.13;5109797;27;20222;-73
2022/06/03 10:47:17;;;;;;;24.35;5.47;;;;;;;38.07;23.12;97216.75;5108489;27;20240;-74
2022/06/03 10:50:10;;;;;;;23.35;6.88;;;;;;;38.04;24.65;97220.75;5128226;27;20104;-74
2022/06/03 11:02:34;;;;;;;53.40;7.35;;;;;;;38.06;22.65;97220.53;5111262;27;20065;-75
2022/06/03 11:05:22;;;;;;;;;;;;;;;38.02;23.72;97220.19;5133417;27;20043;-75
2022/06/03 11:08:16;;;;;;;30.80;7.22;;;;;;;38.00;21.78;97219.63;5119077;27;19927;-73
2022/06/03 11:10:59;;;;;;;54.70;6.53;;;;;;;38.02;21.40;97214.78;5128733;27;20035;-75
2022/06/03 11:13:48;;;;;;;39.80;5.90;;;;;;;38.03;21.62;97224.50;5114722;27;20046;-74
2022/06/03 11:16:36;;;;;;;44.25;5.88;;;;;;;38.02;21.12;97217.50;5123999;27;20042;-75
2022/06/03 11:19:29;;;;;;;31.02;4.65;;;;;;;37.92;21.59;97217.41;5130028;27;20051;-74
2022/06/03 11:22:27;;;;;;;43.25;5.80;;;;;;;37.89;20.40;97242.13;5129013;27;20207;-72
2022/06/03 11:25:27;;;;;;;102.07;9.35;;;;;;;38.16;18.75;97234.03;5110661;27;20035;-73
2022/06/03 11:28:38;;;;;;;60.15;6.78;;;;;;;38.01;19.41;97226.63;5124610;27;20081;-74
2022/06/03 11:31:35;;;;;;;26.90;4.55;;;;;;;38.00;19.41;97211.53;5127200;27;20047;-74
2022/06/03 11:34:45;;;;;;;43.65;5.20;;;;;;;37.80;20.88;97214.09;5127577;27;20108;-77
2022/06/03 11:37:38;;;;;;;36.72;3.88;;;;;;;37.92;19.46;97210.13;5126657;27;20547;-75
2022/06/03 11:40:35;;;;;;;20.15;4.40;;;;;;;38.01;18.03;97199.72;5126677;27;20457;-75
2022/06/03 11:43:46;;;;;;;32.92;5.28;;;;;;;38.09;19.10;97196.59;5127185;27;20039;-75
2022/06/03 11:46:49;;;;;;;58.40;6.85;;;;;;;38.18;19.99;97196.91;5128972;27;20382;-76
2022/06/03 11:49:31;;;;;;;14.85;3.33;;;;;;;38.13;20.52;97203.09;5144988;27;20043;-76
2022/06/03 11:52:22;;;;;;;28.52;4.72;;;;;;;38.15;20.62;97198.25;5129349;27;20047;-74
2022/06/03 11:55:11;;;;;;;31.77;5.28;;;;;;;38.07;20.77;97206.81;5127625;27;20071;-75
2022/06/03 11:58:08;;;;;;;42.65;5.68;;;;;;;37.98;21.09;97202.94;5126531;27;20054;-76
2022/06/03 12:01:04;;;;;;;44.50;8.25;;;;;;;37.84;20.83;97199.03;5111381;27;20047;-76
2022/06/03 12:04:03;;;;;;;50.33;6.97;;;;;;;37.79;22.28;97190.94;5111908;27;20481;-76
2022/06/03 12:07:28;;;;;;;60.08;6.18;;;;;;;37.73;21.29;97189.28;5134833;27;20157;-75
2022/06/03 12:10:21;;;;;;;68.78;7.68;;;;;;;37.64;21.20;97194.31;5117274;27;20043;-75
2022/06/03 12:13:15;;;;;;;47.00;7.13;;;;;;;37.57;21.39;97187.50;5107311;27;20058;-76
2022/06/03 12:16:17;;;;;;;46.40;7.68;;;;;;;37.38;22.77;97182.47;5128664;27;20058;-75
2022/06/03 12:19:12;;;;;;;60.47;8.18;;;;;;;37.22;24.08;97182.56;5106223;28;20523;-77
2022/06/03 12:22:19;;;;;;;51.58;6.55;;;;;;;37.04;25.40;97179.09;5087625;28;20069;-73
2022/06/03 12:25:40;;;;;;;35.80;5.57;;;;;;;36.83;24.80;97179.94;5102162;28;20063;-75
2022/06/03 12:28:42;;;;;;;39.53;5.80;;;;;;;36.68;27.27;97175.19;5104568;28;20116;-76
2022/06/03 12:31:27;;;;;;;39.25;6.63;;;;;;;36.59;25.47;97183.91;5070676;28;20047;-75
2022/06/03 12:34:27;;;;;;;32.55;5.88;;;;;;;36.54;23.98;97178.47;5083389;28;20098;-74
2022/06/03 12:37:37;;;;;;;38.13;6.45;;;;;;;36.50;26.91;97170.09;5085981;28;20126;-73
2022/06/03 12:40:35;;;;;;;28.85;5.50;;;;;;;36.37;27.50;97170.47;5070594;28;20541;-74
2022/06/03 12:43:36;;;;;;;30.83;4.93;;;;;;;36.25;28.69;97167.06;5103156;28;20054;-75
2022/06/03 12:47:15;;;;;;;33.22;4.85;;;;;;;36.09;27.97;97160.63;5089759;27;20147;-74
2022/06/03 12:50:01;;;;;;;34.97;5.70;;;;;;;35.93;30.36;97175.66;5110799;27;20103;-74
2022/06/03 12:52:58;;;;;;;36.42;5.63;;;;;;;35.75;30.38;97170.56;5110111;27;20043;-74
2022/06/03 12:55:42;;;;;;;34.25;5.15;;;;;;;35.66;29.10;97172.81;5107925;28;20130;-75
2022/06/03 12:58:56;;;;;;;24.92;4.82;;;;;;;35.51;36.14;97166.38;5125107;27;20561;-76
2022/06/03 13:01:50;;;;;;;25.85;4.70;;;;;;;35.25;33.15;97159.75;5114418;28;20044;-74
2022/06/03 13:04:46;;;;;;;36.45;6.32;;;;;;;35.14;35.44;97166.72;5114926;28;20434;-73
2022/06/03 13:07:35;;;;;;;31.48;5.78;;;;;;;35.04;34.24;97166.53;5114365;28;20089;-74
2022/06/03 13:10:21;;;;;;;27.10;5.38;;;;;;;34.92;35.61;97165.78;5118775;28;20434;-75
2022/06/03 13:13:41;;;;;;;21.17;4.70;;;;;;;34.76;39.01;97166.53;5099460;28;20538;-70
2022/06/03 13:16:35;;;;;;;32.47;6.45;;;;;;;34.62;38.65;97162.47;5103942;28;20031;-71
2022/06/03 13:19:25;;;;;;;27.02;5.90;;;;;;;34.45;40.91;97157.81;5106360;27;20051;-64
2022/06/03 13:22:09;;;;;;;28.42;5.40;;;;;;;34.35;40.28;97168.28;5101029;28;20048;-67
2022/06/03 13:25:20;;;;;;;29.95;5.50;;;;;;;34.25;38.67;97169.91;5099224;27;20047;-68
2022/06/03 13:28:12;;;;;;;19.95;4.93;;;;;;;34.19;40.15;97164.44;5086442;28;20047;-73
2022/06/03 13:31:19;;;;;;;28.23;5.38;;;;;;;34.09;44.21;97163.38;5091034;28;20485;-71
2022/06/03 13:34:10;;;;;;;28.67;5.70;;;;;;;33.96;41.74;97175.13;5111376;27;20048;-72
2022/06/03 13:37:23;;;;;;;30.05;5.82;;;;;;;33.91;45.37;97166.19;5105126;28;20039;-71
2022/06/03 13:40:07;;;;;;;30.95;5.13;;;;;;;33.75;50.44;97173.84;5109708;28;20044;-71
2022/06/03 13:43:05;;;;;;;30.60;6.32;;;;;;;33.58;54.07;97164.00;5103977;28;20067;-73
2022/06/03 13:46:15;;;;;;;25.88;5.85;;;;;;;33.41;49.58;97169.19;5101846;28;20104;-72
2022/06/03 13:48:58;;;;;;;48.00;10.95;;;;;;;33.32;44.91;97175.88;5112248;27;20482;-72
2022/06/03 13:52:03;;;;;;;35.95;7.70;;;;;;;33.33;45.15;97173.00;5112761;28;20040;-71
2022/06/03 13:55:09;;;;;;;33.03;7.20;;;;;;;33.30;45.42;97180.63;5096113;28;20052;-72
2022/06/03 13:58:09;;;;;;;43.42;7.95;;;;;;;33.26;45.84;97190.16;5129114;27;20062;-72
2022/06/03 14:00:50;;;;;;;35.83;7.10;;;;;;;33.16;49.90;97179.97;5092138;28;20044;-71
2022/06/03 14:03:52;;;;;;;44.78;10.55;;;;;;;32.99;47.47;97174.44;5114076;27;20043;-73
2022/06/03 14:06:52;;;;;;;43.80;8.32;;;;;;;32.93;48.80;97187.88;5113911;27;20047;-74
2022/06/03 14:09:36;;;;;;;41.22;8.90;;;;;;;32.87;49.26;97184.25;5085872;28;20502;-72
2022/06/03 14:12:24;;;;;;;49.65;8.98;;;;;;;32.80;50.83;97191.53;5109716;27;20040;-70
2022/06/03 14:15:13;;;;;;;44.00;9.60;;;;;;;32.74;51.78;97187.06;5100267;28;20479;-69
2022/06/03 14:18:09;;;;;;;51.97;10.07;;;;;;;32.62;51.54;97192.31;5087399;28;20047;-67
2022/06/03 14:21:05;;;;;;;50.15;8.40;;;;;;;32.58;48.89;97195.63;5100072;28;20040;-71
2022/06/03 14:23:47;;;;;;;33.17;8.48;;;;;;;32.55;52.00;97204.09;5105998;28;20047;-67
2022/06/03 14:26:59;;;;;;;35.80;9.23;;;;;;;32.54;59.39;97197.94;5108058;28;20138;-72